createdAt,value
2023-03-17T00:04:38.261Z,100420.78
2023-03-17T00:09:40.733Z,100425.50
2023-03-17T00:14:44.475Z,100419.09
2023-03-17T00:19:46.134Z,100402.31
2023-03-17T00:24:47.758Z,100394.81
2023-03-17T00:29:49.367Z,100384.28
2023-03-17T00:34:52.573Z,100375.44
2023-03-17T00:39:54.801Z,100366.03
2023-03-17T00:44:57.198Z,100367.00
2023-03-17T00:49:58.780Z,100366.88
2023-03-17T00:55:00.774Z,100356.00
2023-03-17T01:00:03.889Z,100340.28
2023-03-17T01:05:07.142Z,100338.47
2023-03-17T01:10:25.706Z,100337.25
2023-03-17T01:15:31.544Z,100331.09
2023-03-17T01:20:34.381Z,100318.41
2023-03-17T01:25:38.176Z,100308.38
2023-03-17T01:30:40.732Z,100313.31
2023-03-17T01:35:43.788Z,100311.91
2023-03-17T01:40:49.464Z,100287.00
2023-03-17T01:46:29.253Z,100281.91
2023-03-17T01:51:39.071Z,100279.97
2023-03-17T01:56:42.224Z,100281.31
2023-03-17T02:01:47.344Z,100267.41
2023-03-17T02:06:57.798Z,100272.75
2023-03-17T02:12:02.011Z,100269.09
2023-03-17T02:17:03.877Z,100259.91
2023-03-17T02:22:05.623Z,100263.75
2023-03-17T02:27:12.914Z,100251.19
2023-03-17T02:32:17.633Z,100247.31
2023-03-17T02:37:19.956Z,100240.56
2023-03-17T02:42:22.022Z,100239.09
2023-03-17T02:47:23.754Z,100239.31
2023-03-17T02:52:26.004Z,100255.75
2023-03-17T02:57:27.561Z,100252.84
2023-03-17T03:02:29.480Z,100255.75
2023-03-17T03:07:31.243Z,100237.59
2023-03-17T03:12:32.866Z,100248.97
2023-03-17T03:17:34.495Z,100244.63
2023-03-17T03:22:36.127Z,100243.19
2023-03-17T03:27:37.694Z,100238.56
2023-03-17T03:32:40.844Z,100243.41
2023-03-17T03:37:42.420Z,100260.84
2023-03-17T03:42:44.078Z,100256.47
2023-03-17T03:47:46.028Z,100249.84
2023-03-17T03:52:47.694Z,100241.75
2023-03-17T03:57:49.252Z,100239.09
2023-03-17T04:02:51.030Z,100221.91
2023-03-17T04:07:52.905Z,100222.91
2023-03-17T04:12:55.726Z,100224.94
2023-03-17T04:17:57.330Z,100217.09
2023-03-17T04:22:58.876Z,100218.44
2023-03-17T04:28:00.464Z,100227.72
2023-03-17T04:33:02.389Z,100221.22
2023-03-17T04:38:04.031Z,100225.69
2023-03-17T04:43:06.468Z,100226.59
2023-03-17T04:48:08.060Z,100206.88
2023-03-17T04:53:10.012Z,100201.66
2023-03-17T04:58:15.520Z,100218.63
2023-03-17T05:03:27.220Z,100203.63
2023-03-17T05:08:29.485Z,100199.28
2023-03-17T05:13:31.099Z,100197.56
2023-03-17T05:18:32.801Z,100181.72
2023-03-17T05:23:35.374Z,100176.56
2023-03-17T05:28:37.277Z,100179.94
2023-03-17T05:33:38.868Z,100192.13
2023-03-17T05:38:40.456Z,100188.75
2023-03-17T05:43:42.077Z,100193.47
2023-03-17T05:48:43.699Z,100194.06
2023-03-17T05:53:45.846Z,100201.63
2023-03-17T05:58:47.533Z,100203.13
2023-03-17T06:03:50.031Z,100205.41
2023-03-17T06:08:51.699Z,100214.53
2023-03-17T06:13:53.336Z,100212.53
2023-03-17T06:18:54.966Z,100211.03
2023-03-17T06:23:56.582Z,100212.03
2023-03-17T06:28:58.134Z,100209.31
2023-03-17T06:34:00.222Z,100213.78
2023-03-17T06:39:02.151Z,100222.56
2023-03-17T06:44:05.690Z,100223.75
2023-03-17T06:49:08.078Z,100225.81
2023-03-17T06:54:09.830Z,100229.91
2023-03-17T06:59:11.421Z,100253.94
2023-03-17T07:04:13.092Z,100258.66
2023-03-17T07:09:15.557Z,100257.38
2023-03-17T07:14:17.233Z,100242.31
2023-03-17T07:19:18.825Z,100217.44
2023-03-17T07:24:20.824Z,100229.22
2023-03-17T07:29:22.739Z,100240.28
2023-03-17T07:34:24.436Z,100212.50
2023-03-17T07:39:26.056Z,100203.41
2023-03-17T07:44:28.798Z,100185.88
2023-03-17T07:49:40.839Z,100192.75
2023-03-17T07:54:43.415Z,100195.09
2023-03-17T07:59:45.539Z,100158.91
2023-03-17T08:04:47.417Z,100172.94
2023-03-17T08:09:49.072Z,100177.00
2023-03-17T08:14:50.697Z,100162.31
2023-03-17T08:19:53.251Z,100164.31
2023-03-17T08:24:55.577Z,100168.94
2023-03-17T08:29:57.544Z,100164.03
2023-03-17T08:34:59.162Z,100159.97
2023-03-17T08:40:01.356Z,100165.44
2023-03-17T08:45:04.426Z,100154.66
2023-03-17T08:50:09.863Z,100156.78
2023-03-17T08:55:13.578Z,100155.94
2023-03-17T09:00:20.291Z,100141.34
2023-03-17T09:05:21.956Z,100139.53
2023-03-17T09:10:23.708Z,100134.75
2023-03-17T09:15:25.290Z,100129.84
2023-03-17T09:20:27.018Z,100122.56
2023-03-17T09:25:28.643Z,100122.81
2023-03-17T09:30:31.208Z,100129.13
2023-03-17T09:35:32.948Z,100130.94
2023-03-17T09:40:48.051Z,100127.25
2023-03-17T09:45:50.458Z,100116.03
2023-03-17T09:51:07.904Z,100112.34
2023-03-17T09:56:14.380Z,100121.84
2023-03-17T10:01:16.255Z,100136.34
2023-03-17T10:06:28.387Z,100107.94
2023-03-17T10:11:46.699Z,100125.22
2023-03-17T10:16:58.683Z,100119.84
2023-03-17T10:22:07.060Z,100125.72
2023-03-17T10:27:11.242Z,100117.25
2023-03-17T10:32:13.828Z,100110.41
2023-03-17T10:37:21.365Z,100095.16
2023-03-17T10:42:29.105Z,100114.94
2023-03-17T10:47:33.575Z,100090.75
2023-03-17T10:52:38.387Z,100114.03
2023-03-17T10:57:41.049Z,100099.44
2023-03-17T11:02:45.999Z,100101.28
2023-03-17T11:07:47.882Z,100102.59
2023-03-17T11:12:55.457Z,100085.13
2023-03-17T11:18:01.319Z,100085.34
2023-03-17T11:23:18.115Z,100073.97
2023-03-17T11:28:31.030Z,100070.84
2023-03-17T11:33:41.794Z,100068.06
2023-03-17T11:38:55.990Z,100067.06
2023-03-17T11:44:03.203Z,100045.72
2023-03-17T11:49:14.783Z,100048.00
2023-03-17T11:54:37.357Z,100049.13
2023-03-17T11:59:52.321Z,100047.06
2023-03-17T12:05:01.096Z,100045.31
2023-03-17T12:10:23.726Z,100049.81
2023-03-17T12:15:38.362Z,100042.03
2023-03-17T12:21:01.759Z,100027.09
2023-03-17T12:26:06.957Z,100011.75
2023-03-17T12:31:14.434Z,100013.13
2023-03-17T12:36:17.033Z,100006.81
2023-03-17T12:42:01.567Z,100010.38
2023-03-17T12:47:09.289Z,100003.16
2023-03-17T12:52:26.040Z,99992.16
2023-03-17T12:57:30.126Z,99995.53
2023-03-17T13:02:39.703Z,99990.84
2023-03-17T13:07:56.254Z,99991.00
2023-03-17T13:13:06.768Z,99986.19
2023-03-17T13:18:14.397Z,99981.84
2023-03-17T13:23:17.832Z,99968.78
2023-03-17T13:28:34.837Z,99964.41
2023-03-17T13:33:45.822Z,99968.59
2023-03-17T13:39:05.166Z,99957.09
2023-03-17T13:44:39.314Z,99947.38
2023-03-17T13:49:41.139Z,99949.88
2023-03-17T13:54:49.647Z,99944.69
2023-03-17T13:59:51.271Z,99935.31
2023-03-17T14:04:58.163Z,99936.66
2023-03-17T14:10:02.664Z,99937.31
2023-03-17T14:15:22.150Z,99930.78
2023-03-17T14:20:25.967Z,99931.94
2023-03-17T14:25:34.178Z,99926.56
2023-03-17T14:30:36.766Z,99920.03
2023-03-17T14:35:43.016Z,99911.00
2023-03-17T14:40:44.944Z,99900.75
2023-03-17T14:45:51.781Z,99887.00
2023-03-17T14:50:55.511Z,99895.03
2023-03-17T14:55:57.207Z,99896.34
2023-03-17T15:01:06.803Z,99900.41
2023-03-17T15:06:30.545Z,99883.97
2023-03-17T15:11:41.805Z,99896.72
2023-03-17T15:16:51.245Z,99887.97
2023-03-17T15:21:52.934Z,99881.31
2023-03-17T15:27:03.769Z,99881.47
2023-03-17T15:32:20.463Z,99885.47
2023-03-17T15:37:28.300Z,99894.69
2023-03-17T15:42:32.613Z,99878.63
2023-03-17T15:47:41.599Z,99874.59
2023-03-17T15:52:43.863Z,99872.25
2023-03-17T15:57:53.845Z,99878.63
2023-03-17T16:02:59.633Z,99869.56
2023-03-17T16:08:01.440Z,99861.50
2023-03-17T16:13:03.213Z,99849.44
2023-03-17T16:18:08.472Z,99859.53
2023-03-17T16:23:17.289Z,99849.63
2023-03-17T16:28:20.251Z,99855.31
2023-03-17T16:33:33.843Z,99844.44
2023-03-17T16:38:35.420Z,99842.75
2023-03-17T16:43:37.942Z,99853.84
2023-03-17T16:48:39.596Z,99844.47
2023-03-17T16:53:41.175Z,99847.63
2023-03-17T16:58:43.046Z,99848.13
2023-03-17T17:03:45.384Z,99863.53
2023-03-17T17:08:47.738Z,99864.19
2023-03-17T17:13:50.054Z,99867.22
2023-03-17T17:18:51.728Z,99862.53
2023-03-17T17:23:53.716Z,99877.59
2023-03-17T17:28:55.335Z,99868.22
2023-03-17T17:33:56.948Z,99872.75
2023-03-17T17:38:58.613Z,99876.28
2023-03-17T17:44:00.234Z,99873.56
2023-03-17T17:49:01.855Z,99858.97
2023-03-17T17:54:03.580Z,99867.88
2023-03-17T17:59:05.132Z,99862.16
2023-03-17T18:04:07.347Z,99863.69
2023-03-17T18:09:09.395Z,99861.31
2023-03-17T18:14:11.343Z,99861.31
2023-03-17T18:19:13.549Z,99853.94
2023-03-17T18:24:15.200Z,99846.72
2023-03-17T18:29:16.849Z,99844.06
2023-03-17T18:34:43.300Z,99855.91
2023-03-17T18:39:48.427Z,99846.34
2023-03-17T18:44:54.640Z,99848.38
2023-03-17T18:49:56.952Z,99849.72
2023-03-17T18:54:58.933Z,99846.19
2023-03-17T19:00:00.589Z,99836.31
2023-03-17T19:05:02.333Z,99824.56
2023-03-17T19:10:04.718Z,99831.91
2023-03-17T19:15:07.590Z,99833.75
2023-03-17T19:20:10.049Z,99829.22
2023-03-17T19:25:12.197Z,99834.38
2023-03-17T19:30:14.253Z,99840.28
2023-03-17T19:35:16.074Z,99836.56
2023-03-17T19:40:17.754Z,99833.31
2023-03-17T19:45:19.390Z,99840.22
2023-03-17T19:50:21.714Z,99838.19
2023-03-17T19:55:26.960Z,99841.00
2023-03-17T20:00:28.604Z,99835.81
2023-03-17T20:05:30.287Z,99840.63
2023-03-17T20:10:32.171Z,99841.47
2023-03-17T20:15:34.469Z,99848.50
2023-03-17T20:20:36.110Z,99848.19
2023-03-17T20:25:37.695Z,99845.16
2023-03-17T20:30:39.975Z,99847.16
2023-03-17T20:35:44.033Z,99860.53
2023-03-17T20:40:45.807Z,99856.19
2023-03-17T20:45:47.370Z,99842.06
2023-03-17T20:50:49.916Z,99837.09
2023-03-17T20:55:51.526Z,99831.75
2023-03-17T21:00:53.352Z,99841.78
2023-03-17T21:05:55.252Z,99837.09
2023-03-17T21:10:56.936Z,99826.38
2023-03-17T21:15:59.228Z,99829.56
2023-03-17T21:21:01.225Z,99820.72
2023-03-17T21:26:02.925Z,99828.06
2023-03-17T21:31:05.235Z,99820.88
2023-03-17T21:36:07.347Z,99823.56
2023-03-17T21:41:22.278Z,99816.41
2023-03-17T21:46:25.324Z,99820.41
2023-03-17T21:51:27.320Z,99828.06
2023-03-17T21:56:29.592Z,99828.41
2023-03-17T22:01:31.556Z,99826.81
2023-03-17T22:06:33.492Z,99817.78
2023-03-17T22:11:35.077Z,99830.03
2023-03-17T22:16:36.791Z,99836.06
2023-03-17T22:21:39.323Z,99837.06
2023-03-17T22:26:40.953Z,99836.72
2023-03-17T22:31:42.730Z,99841.72
2023-03-17T22:36:44.350Z,99835.72
2023-03-17T22:41:46.133Z,99833.22
2023-03-17T22:46:47.742Z,99824.69
2023-03-17T22:51:50.081Z,99837.72
2023-03-17T22:56:51.752Z,99830.72
2023-03-17T23:01:53.329Z,99837.34
2023-03-17T23:06:55.007Z,99826.81
2023-03-17T23:11:56.810Z,99821.59
2023-03-17T23:16:58.531Z,99823.78
2023-03-17T23:22:00.103Z,99832.78
2023-03-17T23:27:01.768Z,99825.53
2023-03-17T23:32:03.875Z,99825.66
2023-03-17T23:37:05.543Z,99833.31
2023-03-17T23:42:07.319Z,99836.97
2023-03-17T23:47:09.670Z,99830.16
2023-03-17T23:52:11.436Z,99837.19
2023-03-17T23:57:13.354Z,99825.75
